createdAt,value
2019-02-22T00:00:19.172Z,40.16
2019-02-22T00:01:19.027Z,40.15
2019-02-22T00:02:19.184Z,40.14
2019-02-22T00:03:19.271Z,40.14
2019-02-22T00:04:19.169Z,40.17
2019-02-22T00:05:20.711Z,40.21
2019-02-22T00:06:19.279Z,40.21
2019-02-22T00:07:18.717Z,40.19
2019-02-22T00:08:20.733Z,40.18
2019-02-22T00:09:20.831Z,40.22
2019-02-22T00:10:18.931Z,40.23
2019-02-22T00:11:18.969Z,40.18
2019-02-22T00:12:19.456Z,40.19
2019-02-22T00:13:20.738Z,40.18
2019-02-22T00:14:18.723Z,40.19
2019-02-22T00:15:18.662Z,40.19
2019-02-22T00:16:19.384Z,40.17
2019-02-22T00:17:19.606Z,40.21
2019-02-22T00:18:19.004Z,40.16
2019-02-22T00:19:18.935Z,40.21
2019-02-22T00:20:19.011Z,40.23
2019-02-22T00:21:20.582Z,40.22
2019-02-22T00:22:19.196Z,40.26
2019-02-22T00:23:19.375Z,40.21
2019-02-22T00:24:18.872Z,40.23
2019-02-22T00:25:19.032Z,40.23
2019-02-22T00:26:18.887Z,40.22
2019-02-22T00:27:19.029Z,40.21
2019-02-22T00:28:19.297Z,40.16
2019-02-22T00:29:19.058Z,40.24
2019-02-22T00:30:21.733Z,40.22
2019-02-22T00:31:19.198Z,40.25
2019-02-22T00:32:18.799Z,40.26
2019-02-22T00:33:19.032Z,40.23
2019-02-22T00:34:20.036Z,40.25
2019-02-22T00:35:19.932Z,40.25
2019-02-22T00:36:19.191Z,40.28
2019-02-22T00:37:19.532Z,40.23
2019-02-22T00:38:19.036Z,40.27
2019-02-22T00:41:19.228Z,40.28
2019-02-22T00:42:18.745Z,40.29
2019-02-22T00:43:18.916Z,40.28
2019-02-22T00:44:19.103Z,40.28
2019-02-22T00:45:19.562Z,40.27
2019-02-22T00:46:19.179Z,40.31
2019-02-22T00:47:19.277Z,40.31
2019-02-22T00:48:18.712Z,40.31
2019-02-22T00:49:18.825Z,40.27
2019-02-22T00:50:18.712Z,40.27
2019-02-22T00:51:19.791Z,40.29
2019-02-22T00:52:19.316Z,40.26
2019-02-22T00:53:18.859Z,40.3
2019-02-22T00:54:18.936Z,40.3
2019-02-22T00:55:18.995Z,40.31
2019-02-22T00:56:19.760Z,40.29
2019-02-22T00:57:19.577Z,40.28
2019-02-22T00:58:19.275Z,40.27
2019-02-22T00:59:18.739Z,40.3
2019-02-22T01:00:19.055Z,40.29
2019-02-22T01:01:19.033Z,40.25
2019-02-22T01:02:19.301Z,40.28
2019-02-22T01:03:19.104Z,40.32
2019-02-22T01:04:19.100Z,40.3
2019-02-22T01:05:18.914Z,40.33
2019-02-22T01:06:19.204Z,40.32
2019-02-22T01:07:19.028Z,40.31
2019-02-22T01:08:18.898Z,40.32
2019-02-22T01:09:19.029Z,40.3
2019-02-22T01:10:18.836Z,40.36
2019-02-22T01:11:19.464Z,40.28
2019-02-22T01:12:19.031Z,40.29
2019-02-22T01:13:18.770Z,40.32
2019-02-22T01:14:19.320Z,40.33
2019-02-22T01:15:19.224Z,40.31
2019-02-22T01:16:18.872Z,40.31
2019-02-22T01:17:18.816Z,40.32
2019-02-22T01:18:18.878Z,40.27
2019-02-22T01:19:20.346Z,40.29
2019-02-22T01:20:18.970Z,40.31
2019-02-22T01:21:19.277Z,40.33
2019-02-22T01:22:19.121Z,40.3
2019-02-22T01:23:19.255Z,40.32
2019-02-22T01:24:18.978Z,40.34
2019-02-22T01:25:18.858Z,40.32
2019-02-22T01:26:20.778Z,40.31
2019-02-22T01:27:18.677Z,40.32
2019-02-22T01:28:19.599Z,40.34
2019-02-22T01:29:18.944Z,40.32
2019-02-22T01:30:19.007Z,40.34
2019-02-22T01:31:19.051Z,40.32
2019-02-22T01:32:19.025Z,40.33
2019-02-22T01:33:18.835Z,40.34
2019-02-22T01:34:20.797Z,40.33
2019-02-22T01:35:18.873Z,40.34
2019-02-22T01:36:18.908Z,40.32
2019-02-22T01:37:18.787Z,40.33
2019-02-22T01:38:18.649Z,40.35
2019-02-22T01:39:18.694Z,40.35
2019-02-22T01:40:18.857Z,40.31
2019-02-22T01:41:18.694Z,40.32
2019-02-22T01:42:18.762Z,40.35
2019-02-22T01:43:18.989Z,40.36
2019-02-22T01:44:20.186Z,40.35
2019-02-22T01:45:19.203Z,40.39
2019-02-22T01:46:18.729Z,40.35
2019-02-22T01:47:19.198Z,40.34
2019-02-22T01:48:19.001Z,40.35
2019-02-22T01:49:19.173Z,40.35
2019-02-22T01:50:19.137Z,40.34
2019-02-22T01:51:19.166Z,40.33
2019-02-22T01:52:19.048Z,40.36
2019-02-22T01:53:19.280Z,40.39
2019-02-22T01:54:19.670Z,40.35
2019-02-22T01:55:19.060Z,40.34
2019-02-22T01:56:18.833Z,40.35
2019-02-22T01:57:18.656Z,40.39
2019-02-22T01:58:18.730Z,40.36
2019-02-22T01:59:18.825Z,40.39
2019-02-22T02:00:20.739Z,40.36
2019-02-22T02:01:19.153Z,40.36
2019-02-22T02:02:18.619Z,40.34
2019-02-22T02:03:18.997Z,40.38
2019-02-22T02:04:18.802Z,40.37
2019-02-22T02:05:18.730Z,40.38
2019-02-22T02:06:19.129Z,40.36
2019-02-22T02:07:18.729Z,40.37
2019-02-22T02:08:18.808Z,40.36
2019-02-22T02:09:19.114Z,40.39
2019-02-22T02:10:18.701Z,40.36
2019-02-22T02:11:18.871Z,40.36
2019-02-22T02:12:18.974Z,40.39
2019-02-22T02:13:18.972Z,40.41
2019-02-22T02:14:19.204Z,40.41
2019-02-22T02:15:19.020Z,40.41
2019-02-22T02:16:18.963Z,40.39
2019-02-22T02:17:19.105Z,40.36
2019-02-22T02:18:19.633Z,40.41
2019-02-22T02:19:18.755Z,40.36
2019-02-22T02:20:19.871Z,40.33
2019-02-22T02:21:19.124Z,40.34
2019-02-22T02:22:19.378Z,40.35
2019-02-22T02:23:20.742Z,40.37
2019-02-22T02:24:18.786Z,40.37
2019-02-22T02:25:19.691Z,40.36
2019-02-22T02:26:19.893Z,40.37
2019-02-22T02:27:18.612Z,40.36
2019-02-22T02:28:19.749Z,40.36
2019-02-22T02:29:19.094Z,40.37
2019-02-22T02:30:19.235Z,40.41
2019-02-22T02:31:19.043Z,40.36
2019-02-22T02:32:19.227Z,40.36
2019-02-22T02:33:19.175Z,40.37
2019-02-22T02:34:20.769Z,40.37
2019-02-22T02:35:18.763Z,40.35
2019-02-22T02:36:19.054Z,40.36
2019-02-22T02:37:19.271Z,40.39
2019-02-22T02:38:20.930Z,40.37
2019-02-22T02:39:18.895Z,40.4
2019-02-22T02:40:19.498Z,40.36
2019-02-22T02:41:19.089Z,40.4
2019-02-22T02:42:19.031Z,40.37
2019-02-22T02:43:19.137Z,40.39
2019-02-22T02:44:18.903Z,40.37
2019-02-22T02:45:19.426Z,40.39
2019-02-22T02:46:19.421Z,40.42
2019-02-22T02:47:19.889Z,40.39
2019-02-22T02:48:19.844Z,40.4
2019-02-22T02:49:18.957Z,40.39
2019-02-22T02:50:18.926Z,40.37
2019-02-22T02:51:19.826Z,40.41
2019-02-22T02:52:19.554Z,40.39
2019-02-22T02:53:19.151Z,40.35
2019-02-22T02:54:19.371Z,40.35
2019-02-22T02:55:19.189Z,40.39
2019-02-22T02:56:20.716Z,40.38
2019-02-22T02:57:19.447Z,40.39
2019-02-22T02:58:19.109Z,40.39
2019-02-22T02:59:19.408Z,40.37
2019-02-22T03:00:18.870Z,40.39
2019-02-22T03:01:19.029Z,40.36
2019-02-22T03:02:19.129Z,40.37
2019-02-22T03:03:19.347Z,40.38
2019-02-22T03:04:20.617Z,40.38
2019-02-22T03:05:18.903Z,40.38
2019-02-22T03:06:18.759Z,40.4
2019-02-22T03:07:20.669Z,40.37
2019-02-22T03:08:19.597Z,40.38
2019-02-22T03:09:18.961Z,40.39
2019-02-22T03:10:18.996Z,40.39
2019-02-22T03:11:21.484Z,40.42
2019-02-22T03:12:19.063Z,40.4
2019-02-22T03:13:18.720Z,40.38
2019-02-22T03:14:19.297Z,40.37
2019-02-22T03:15:19.700Z,40.39
2019-02-22T03:16:18.968Z,40.42
2019-02-22T03:17:19.021Z,40.41
2019-02-22T03:18:18.931Z,40.4
2019-02-22T03:19:19.016Z,40.39
2019-02-22T03:20:20.585Z,40.38
2019-02-22T03:21:19.065Z,40.38
2019-02-22T03:22:19.780Z,40.37
2019-02-22T03:23:19.388Z,40.42
2019-02-22T03:24:19.272Z,40.4
2019-02-22T03:25:19.032Z,40.4
2019-02-22T03:26:19.002Z,40.4
2019-02-22T03:27:19.148Z,40.4
2019-02-22T03:28:18.990Z,40.41
2019-02-22T03:29:18.917Z,40.38
2019-02-22T03:30:19.865Z,40.37
2019-02-22T03:31:19.701Z,40.4
2019-02-22T03:32:18.685Z,40.42
2019-02-22T03:33:18.945Z,40.39
2019-02-22T03:34:19.974Z,40.39
2019-02-22T03:35:19.033Z,40.4
2019-02-22T03:36:18.987Z,40.42
2019-02-22T03:37:19.186Z,40.39
2019-02-22T03:38:19.080Z,40.38
2019-02-22T03:39:19.199Z,40.38
2019-02-22T03:40:18.708Z,40.41
2019-02-22T03:41:18.830Z,40.46
2019-02-22T03:42:19.252Z,40.4
2019-02-22T03:43:18.924Z,40.4
2019-02-22T03:44:18.755Z,40.42
2019-02-22T03:45:19.149Z,40.44
2019-02-22T03:46:18.948Z,40.45
2019-02-22T03:47:19.035Z,40.42
2019-02-22T03:48:19.190Z,40.43
2019-02-22T03:49:18.941Z,40.4
2019-02-22T03:50:19.179Z,40.4
2019-02-22T03:51:19.391Z,40.43
2019-02-22T03:52:19.502Z,40.42
2019-02-22T03:53:19.178Z,40.4
2019-02-22T03:54:19.201Z,40.43
2019-02-22T03:55:19.088Z,40.43
2019-02-22T03:56:19.019Z,40.4
2019-02-22T03:57:19.919Z,40.44
2019-02-22T03:58:19.034Z,40.4
2019-02-22T03:59:19.136Z,40.41
2019-02-22T04:00:19.862Z,40.42
2019-02-22T04:01:20.618Z,40.43
2019-02-22T04:02:18.945Z,40.42
2019-02-22T04:03:19.042Z,40.42
2019-02-22T04:04:19.081Z,40.42
2019-02-22T04:05:18.967Z,40.46
2019-02-22T04:06:19.281Z,40.46
2019-02-22T04:07:19.198Z,40.42
2019-02-22T04:08:19.092Z,40.43
2019-02-22T04:09:19.158Z,40.44
2019-02-22T04:10:19.202Z,40.42
2019-02-22T04:11:19.019Z,40.43
2019-02-22T04:12:19.933Z,40.43
2019-02-22T04:13:18.854Z,40.44
2019-02-22T04:14:19.727Z,40.45
2019-02-22T04:15:19.050Z,40.44
2019-02-22T04:16:18.778Z,40.43
2019-02-22T04:17:20.686Z,40.43
2019-02-22T04:18:19.563Z,40.44
2019-02-22T04:19:19.305Z,40.45
2019-02-22T04:20:18.976Z,40.43
2019-02-22T04:21:18.865Z,40.43
2019-02-22T04:22:18.910Z,40.46
2019-02-22T04:23:19.207Z,40.44
2019-02-22T04:24:18.930Z,40.44
2019-02-22T04:25:19.068Z,40.41
2019-02-22T04:26:18.932Z,40.43
2019-02-22T04:27:18.771Z,40.42
2019-02-22T04:28:19.633Z,40.43
2019-02-22T04:29:19.132Z,40.43
2019-02-22T04:30:18.650Z,40.44
2019-02-22T04:31:19.075Z,40.44
2019-02-22T04:32:19.057Z,40.43
2019-02-22T04:33:19.080Z,40.45
2019-02-22T04:34:19.286Z,40.47
2019-02-22T04:35:19.685Z,40.42
2019-02-22T04:36:19.298Z,40.47
2019-02-22T04:37:19.093Z,40.45
2019-02-22T04:38:18.919Z,40.42
2019-02-22T04:39:18.892Z,40.43
2019-02-22T04:40:19.025Z,40.43
2019-02-22T04:41:19.209Z,40.47
2019-02-22T04:42:18.929Z,40.46
2019-02-22T04:43:18.952Z,40.45
2019-02-22T04:44:20.731Z,40.44
2019-02-22T04:45:18.939Z,40.43
2019-02-22T04:46:19.373Z,40.42
2019-02-22T04:47:18.952Z,40.4
2019-02-22T04:48:19.070Z,40.4
2019-02-22T04:49:19.075Z,40.39
2019-02-22T04:50:19.100Z,40.36
2019-02-22T04:51:18.819Z,40.38
2019-02-22T04:52:18.897Z,40.37
2019-02-22T04:53:18.943Z,40.32
2019-02-22T04:54:19.020Z,40.37
2019-02-22T04:55:19.604Z,40.37
2019-02-22T04:56:19.206Z,40.4
2019-02-22T04:57:19.230Z,40.35
2019-02-22T04:58:18.738Z,40.36
2019-02-22T04:59:18.955Z,40.36
2019-02-22T05:00:18.626Z,40.32
2019-02-22T05:01:19.093Z,40.31
2019-02-22T05:02:19.036Z,40.28
2019-02-22T05:03:19.078Z,40.28
2019-02-22T05:04:18.998Z,40.29
2019-02-22T05:05:18.683Z,40.31
2019-02-22T05:06:18.658Z,40.29
2019-02-22T05:07:18.923Z,40.23
2019-02-22T05:08:18.854Z,40.32
2019-02-22T05:09:18.691Z,40.31
2019-02-22T05:10:18.858Z,40.32
2019-02-22T05:11:19.081Z,40.33
2019-02-22T05:12:18.678Z,40.33
2019-02-22T05:13:19.230Z,40.34
2019-02-22T05:14:18.847Z,40.35
2019-02-22T05:15:18.841Z,40.34
2019-02-22T05:16:19.070Z,40.4
2019-02-22T05:17:18.984Z,40.37
2019-02-22T05:18:19.915Z,40.35
2019-02-22T05:19:18.877Z,40.36
2019-02-22T05:20:19.362Z,40.33
2019-02-22T05:21:19.109Z,40.36
2019-02-22T05:22:18.735Z,40.39
2019-02-22T05:23:19.234Z,40.34
2019-02-22T05:24:18.836Z,40.33
2019-02-22T05:25:19.321Z,40.38
2019-02-22T05:26:18.894Z,40.31
2019-02-22T05:27:19.292Z,40.37
2019-02-22T05:28:20.910Z,40.35
2019-02-22T05:29:20.616Z,40.38
2019-02-22T05:30:19.279Z,40.36
2019-02-22T05:31:18.751Z,40.34
2019-02-22T05:32:19.074Z,40.32
2019-02-22T05:33:19.483Z,40.37
2019-02-22T05:34:18.624Z,40.35
2019-02-22T05:35:19.187Z,40.37
2019-02-22T05:36:19.250Z,40.38
2019-02-22T05:37:18.765Z,40.38
2019-02-22T05:38:18.925Z,40.36
2019-02-22T05:39:19.854Z,40.36
2019-02-22T05:40:19.232Z,40.37
2019-02-22T05:41:19.115Z,40.31
2019-02-22T05:42:23.493Z,40.37
2019-02-22T05:43:19.063Z,40.36
2019-02-22T05:44:18.983Z,40.29
2019-02-22T05:45:18.930Z,40.32
2019-02-22T05:46:19.398Z,40.35
2019-02-22T05:47:19.180Z,40.28
2019-02-22T05:48:18.792Z,40.38
2019-02-22T05:49:22.664Z,40.31
2019-02-22T05:50:19.089Z,40.3
2019-02-22T05:51:18.916Z,40.35
2019-02-22T05:52:20.592Z,40.29
2019-02-22T05:53:18.963Z,40.29
2019-02-22T05:54:18.686Z,40.27
2019-02-22T05:55:18.659Z,40.34
2019-02-22T05:56:20.625Z,40.32
2019-02-22T05:57:18.792Z,40.33
2019-02-22T05:58:19.243Z,40.28
2019-02-22T05:59:18.790Z,40.29
2019-02-22T06:00:19.172Z,40.27
2019-02-22T06:01:20.681Z,40.28
2019-02-22T06:02:19.713Z,40.3
2019-02-22T06:03:19.010Z,40.29
2019-02-22T06:04:18.757Z,40.25
2019-02-22T06:05:20.503Z,40.26
2019-02-22T06:06:19.036Z,40.24
2019-02-22T06:07:19.233Z,40.3
2019-02-22T06:08:18.850Z,40.25
2019-02-22T06:09:18.901Z,40.29
2019-02-22T06:10:19.147Z,40.26
2019-02-22T06:11:20.694Z,40.19
2019-02-22T06:12:19.099Z,40.22
2019-02-22T06:13:18.834Z,40.26
2019-02-22T06:14:19.180Z,40.22
2019-02-22T06:15:19.061Z,40.2
2019-02-22T06:16:18.644Z,40.25
2019-02-22T06:17:19.030Z,40.18
2019-02-22T06:18:19.302Z,40.2
2019-02-22T06:19:18.787Z,40.17
2019-02-22T06:20:18.874Z,40.18
2019-02-22T06:21:19.156Z,40.19
2019-02-22T06:22:30.035Z,40.19
2019-02-22T06:23:19.893Z,40.22
2019-02-22T06:24:19.678Z,40.16
2019-02-22T06:25:18.769Z,40.19
2019-02-22T06:26:18.841Z,40.19
2019-02-22T06:27:19.966Z,40.12
2019-02-22T06:28:18.639Z,40.15
2019-02-22T06:29:19.073Z,40.12
2019-02-22T06:30:18.797Z,40.07
2019-02-22T06:31:18.881Z,40.11
2019-02-22T06:32:19.741Z,40.16
2019-02-22T06:33:18.891Z,40.08
2019-02-22T06:34:18.769Z,40.1
2019-02-22T06:35:19.014Z,40.08
2019-02-22T06:36:18.929Z,40.08
2019-02-22T06:37:19.041Z,40.11
2019-02-22T06:38:19.962Z,40.04
2019-02-22T06:39:20.521Z,40.04
2019-02-22T06:40:18.666Z,40.05
2019-02-22T06:41:18.766Z,40.04
2019-02-22T06:42:18.557Z,40.02
2019-02-22T06:43:18.948Z,40.04
2019-02-22T06:44:18.686Z,40.01
2019-02-22T06:45:19.933Z,39.99
2019-02-22T06:46:18.775Z,40.09
2019-02-22T06:47:19.712Z,40.06
2019-02-22T06:48:18.869Z,39.96
2019-02-22T06:49:18.773Z,39.95
2019-02-22T06:50:18.909Z,39.98
2019-02-22T06:51:18.775Z,39.96
2019-02-22T06:52:19.445Z,40.03
2019-02-22T06:53:19.593Z,39.94
2019-02-22T06:54:19.240Z,39.98
2019-02-22T06:55:18.876Z,39.99
2019-02-22T06:56:18.714Z,39.96
2019-02-22T06:57:19.006Z,39.93
2019-02-22T06:58:19.495Z,39.95
2019-02-22T06:59:19.098Z,39.96
2019-02-22T07:00:19.001Z,39.89
2019-02-22T07:01:18.868Z,39.93
2019-02-22T07:02:19.234Z,39.88
2019-02-22T07:03:19.104Z,39.91
2019-02-22T07:04:19.802Z,39.87
2019-02-22T07:05:19.650Z,39.92
2019-02-22T07:06:20.108Z,39.95
2019-02-22T07:07:20.483Z,39.91
2019-02-22T07:08:19.461Z,39.93
2019-02-22T07:09:18.967Z,39.92
2019-02-22T07:10:18.696Z,39.86
2019-02-22T07:11:18.837Z,39.85
2019-02-22T07:12:18.870Z,39.84
2019-02-22T07:13:18.928Z,39.84
2019-02-22T07:14:18.984Z,39.87
2019-02-22T07:15:19.093Z,39.88
2019-02-22T07:16:18.950Z,39.88
2019-02-22T07:17:19.088Z,39.85
2019-02-22T07:18:19.010Z,39.85
2019-02-22T07:19:18.768Z,39.8
2019-02-22T07:20:18.942Z,39.81
2019-02-22T07:21:19.393Z,39.76
2019-02-22T07:22:18.577Z,39.77
2019-02-22T07:23:18.741Z,39.79
2019-02-22T07:24:19.434Z,39.8
2019-02-22T07:25:19.076Z,39.77
2019-02-22T07:26:19.067Z,39.76
2019-02-22T07:27:18.765Z,39.81
2019-02-22T07:28:20.533Z,39.78
2019-02-22T07:29:19.123Z,39.8
2019-02-22T07:30:20.649Z,39.77
2019-02-22T07:31:20.250Z,39.81
2019-02-22T07:32:19.172Z,39.79
2019-02-22T07:33:19.626Z,39.75
2019-02-22T07:34:18.675Z,39.81
2019-02-22T07:35:18.910Z,39.74
2019-02-22T07:36:18.956Z,39.75
2019-02-22T07:37:18.954Z,39.73
2019-02-22T07:38:19.276Z,39.72
2019-02-22T07:39:28.306Z,39.73
2019-02-22T07:40:20.225Z,39.76
2019-02-22T07:41:18.868Z,39.73
2019-02-22T07:42:18.839Z,39.74
2019-02-22T07:43:18.811Z,39.76
2019-02-22T07:44:18.765Z,39.7
2019-02-22T07:45:19.296Z,39.77
2019-02-22T07:46:18.719Z,39.71
2019-02-22T07:47:18.701Z,39.7
2019-02-22T07:48:18.820Z,39.74
2019-02-22T07:49:18.900Z,39.75
2019-02-22T07:50:18.945Z,39.68
2019-02-22T07:51:18.699Z,39.7
2019-02-22T07:52:19.403Z,39.77
2019-02-22T07:53:20.475Z,39.75
2019-02-22T07:54:18.777Z,39.83
2019-02-22T07:55:18.995Z,40.02
2019-02-22T07:56:19.404Z,40.11
2019-02-22T07:57:18.647Z,40.24
2019-02-22T07:58:18.442Z,39.93
2019-02-22T07:59:18.522Z,39.9
2019-02-22T08:00:18.759Z,39.95
2019-02-22T08:01:18.883Z,39.99
2019-02-22T08:02:19.254Z,39.92
2019-02-22T08:03:20.648Z,39.92
2019-02-22T08:04:18.851Z,39.94
2019-02-22T08:05:18.730Z,39.87
2019-02-22T08:06:19.060Z,39.9
2019-02-22T08:07:20.537Z,39.88
2019-02-22T08:08:19.046Z,39.89
2019-02-22T08:09:18.827Z,39.89
2019-02-22T08:10:18.967Z,39.81
2019-02-22T08:11:18.823Z,39.79
2019-02-22T08:12:19.735Z,39.84
2019-02-22T08:13:20.389Z,39.79
2019-02-22T08:14:19.025Z,39.77
2019-02-22T08:15:19.414Z,39.84
2019-02-22T08:16:18.613Z,39.8
2019-02-22T08:17:20.061Z,39.78
2019-02-22T08:18:19.054Z,39.72
2019-02-22T08:19:18.836Z,39.76
2019-02-22T08:20:19.159Z,39.72
2019-02-22T08:21:19.158Z,39.76
2019-02-22T08:22:20.920Z,39.76
2019-02-22T08:23:18.861Z,39.72
2019-02-22T08:24:18.587Z,39.7
2019-02-22T08:25:18.723Z,39.66
2019-02-22T08:26:18.709Z,39.69
2019-02-22T08:27:18.996Z,39.76
2019-02-22T08:28:19.075Z,39.65
2019-02-22T08:29:19.436Z,39.72
2019-02-22T08:30:18.713Z,39.71
2019-02-22T08:31:18.821Z,39.69
2019-02-22T08:32:18.916Z,39.67
2019-02-22T08:33:19.139Z,39.7
2019-02-22T08:34:20.380Z,39.62
2019-02-22T08:35:18.741Z,39.66
2019-02-22T08:36:18.837Z,39.67
2019-02-22T08:37:18.671Z,39.61
2019-02-22T08:38:19.058Z,39.62
2019-02-22T08:39:18.979Z,39.65
2019-02-22T08:40:18.904Z,39.61
2019-02-22T08:41:18.753Z,39.68
2019-02-22T08:42:18.795Z,39.64
2019-02-22T08:43:18.916Z,39.61
2019-02-22T08:44:18.798Z,39.62
2019-02-22T08:45:19.637Z,39.6
2019-02-22T08:46:18.936Z,39.6
2019-02-22T08:47:18.880Z,39.59
2019-02-22T08:48:19.542Z,39.61
2019-02-22T08:49:19.268Z,39.6
2019-02-22T08:50:18.823Z,39.64
2019-02-22T08:51:19.088Z,39.64
2019-02-22T08:52:19.058Z,39.6
2019-02-22T08:53:19.192Z,39.64
2019-02-22T08:54:19.393Z,39.62
2019-02-22T08:55:18.801Z,39.56
2019-02-22T08:56:19.902Z,39.54
2019-02-22T08:57:18.914Z,39.56
2019-02-22T08:58:18.664Z,39.54
2019-02-22T08:59:19.005Z,39.6
2019-02-22T09:00:18.630Z,39.5
2019-02-22T09:01:18.926Z,39.54
2019-02-22T09:02:18.831Z,39.58
2019-02-22T09:03:18.800Z,39.55
2019-02-22T09:04:19.398Z,39.54
2019-02-22T09:05:18.804Z,39.56
2019-02-22T09:06:18.585Z,39.56
2019-02-22T09:07:19.402Z,39.57
2019-02-22T09:08:18.798Z,39.54
2019-02-22T09:09:18.716Z,39.53
2019-02-22T09:10:19.132Z,39.59
2019-02-22T09:11:18.883Z,39.56
2019-02-22T09:12:18.957Z,39.51
2019-02-22T09:13:19.044Z,39.56
2019-02-22T09:14:18.817Z,39.49
2019-02-22T09:15:18.826Z,39.53
2019-02-22T09:16:18.954Z,39.54
2019-02-22T09:17:19.155Z,39.54
2019-02-22T09:18:19.380Z,39.51
2019-02-22T09:19:19.679Z,39.53
2019-02-22T09:20:18.745Z,39.48
2019-02-22T09:21:19.401Z,39.49
2019-02-22T09:22:23.390Z,39.52
2019-02-22T09:23:19.199Z,39.5
2019-02-22T09:24:19.426Z,39.45
2019-02-22T09:25:18.715Z,39.48
2019-02-22T09:26:18.899Z,39.45
2019-02-22T09:27:19.028Z,39.48
2019-02-22T09:28:18.672Z,39.45
2019-02-22T09:29:19.119Z,39.45
2019-02-22T09:30:19.161Z,39.4
2019-02-22T09:31:18.785Z,39.44
2019-02-22T09:32:18.992Z,39.47
2019-02-22T09:33:19.057Z,39.39
2019-02-22T09:34:18.989Z,39.42
2019-02-22T09:35:19.008Z,39.39
2019-02-22T09:36:19.105Z,39.57
2019-02-22T09:37:20.468Z,40.04
2019-02-22T09:38:18.696Z,40.08
2019-02-22T09:39:18.735Z,40.34
2019-02-22T09:40:19.113Z,40.69
2019-02-22T09:41:20.122Z,40.96
2019-02-22T09:42:18.838Z,40.93
2019-02-22T09:43:18.831Z,40.87
2019-02-22T09:44:18.809Z,40.99
2019-02-22T09:45:18.748Z,41.14
2019-02-22T09:46:18.642Z,41.56
2019-02-22T09:47:18.819Z,41.54
2019-02-22T09:48:18.779Z,41.53
2019-02-22T09:49:19.000Z,41.79
2019-02-22T09:50:19.310Z,41.92
2019-02-22T09:51:18.952Z,41.87
2019-02-22T09:52:18.519Z,41.78
2019-02-22T09:53:20.570Z,42.19
2019-02-22T09:54:18.575Z,42.18
2019-02-22T09:55:18.724Z,42.04
2019-02-22T09:56:19.734Z,42.05
2019-02-22T09:57:18.822Z,42.03
2019-02-22T09:58:20.498Z,42.11
2019-02-22T09:59:18.852Z,42.16
2019-02-22T10:00:18.738Z,42.25
2019-02-22T10:01:19.406Z,42.14
2019-02-22T10:02:18.797Z,42.15
2019-02-22T10:03:19.502Z,42.26
2019-02-22T10:04:19.047Z,42.32
2019-02-22T10:05:19.006Z,42.4
2019-02-22T10:06:18.601Z,42.51
2019-02-22T10:07:19.115Z,42.32
2019-02-22T10:08:19.077Z,42.55
2019-02-22T10:09:18.681Z,42.33
2019-02-22T10:10:18.736Z,42.42
2019-02-22T10:11:19.036Z,42.48
2019-02-22T10:12:19.312Z,42.57
2019-02-22T10:13:19.287Z,42.47
2019-02-22T10:14:20.622Z,42.53
2019-02-22T10:15:19.019Z,42.57
2019-02-22T10:16:19.065Z,42.6
2019-02-22T10:17:18.681Z,42.57
2019-02-22T10:18:18.704Z,42.58
2019-02-22T10:19:18.799Z,42.51
2019-02-22T10:20:18.831Z,42.68
2019-02-22T10:21:18.999Z,42.74
2019-02-22T10:22:19.042Z,42.7
2019-02-22T10:23:18.930Z,42.68
2019-02-22T10:24:18.918Z,42.76
2019-02-22T10:25:20.260Z,42.71
2019-02-22T10:26:21.653Z,42.73
2019-02-22T10:27:18.733Z,42.86
2019-02-22T10:28:18.875Z,42.63
2019-02-22T10:29:19.058Z,42.68
2019-02-22T10:30:18.617Z,42.68
2019-02-22T10:31:18.610Z,42.67
2019-02-22T10:32:19.780Z,42.78
2019-02-22T10:33:18.774Z,42.76
2019-02-22T10:34:18.626Z,42.76
2019-02-22T10:35:18.671Z,42.63
2019-02-22T10:36:18.851Z,42.63
2019-02-22T10:37:18.619Z,42.76
2019-02-22T10:38:18.772Z,42.71
2019-02-22T10:39:18.688Z,42.72
2019-02-22T10:40:18.698Z,42.65
2019-02-22T10:41:19.118Z,42.68
2019-02-22T10:42:18.954Z,42.82
2019-02-22T10:43:18.984Z,42.75
2019-02-22T10:44:18.708Z,42.7
2019-02-22T10:45:18.918Z,42.84
2019-02-22T10:46:18.891Z,42.74
2019-02-22T10:47:20.457Z,42.86
2019-02-22T10:48:19.672Z,42.77
2019-02-22T10:49:18.837Z,42.57
2019-02-22T10:50:20.466Z,42.38
2019-02-22T10:51:18.696Z,42.32
2019-02-22T10:52:19.138Z,42.06
2019-02-22T10:53:18.738Z,41.95
2019-02-22T10:54:18.734Z,41.82
2019-02-22T10:55:19.258Z,41.67
2019-02-22T10:56:18.570Z,41.63
2019-02-22T10:57:18.965Z,41.56
2019-02-22T10:58:18.866Z,41.49
2019-02-22T10:59:18.748Z,41.42
2019-02-22T11:00:18.686Z,41.39
2019-02-22T11:01:19.025Z,41.38
2019-02-22T11:02:18.641Z,41.3
2019-02-22T11:03:18.894Z,41.37
2019-02-22T11:04:19.141Z,41.36
2019-02-22T11:05:19.635Z,41.54
2019-02-22T11:06:18.906Z,41.5
2019-02-22T11:07:18.711Z,41.13
2019-02-22T11:08:18.933Z,41.42
2019-02-22T11:09:19.745Z,41.32
2019-02-22T11:10:19.634Z,41.23
2019-02-22T11:11:18.596Z,41.11
2019-02-22T11:12:19.383Z,40.99
2019-02-22T11:13:21.584Z,41.28
2019-02-22T11:14:29.497Z,41
2019-02-22T11:15:18.777Z,40.99
2019-02-22T11:16:19.106Z,41.21
2019-02-22T11:17:18.906Z,40.86
2019-02-22T11:18:18.985Z,40.86
2019-02-22T11:19:18.768Z,41.24
2019-02-22T11:20:20.507Z,40.78
2019-02-22T11:21:19.114Z,41.26
2019-02-22T11:22:18.710Z,40.57
2019-02-22T11:23:19.077Z,40.44
2019-02-22T11:24:20.530Z,41.08
2019-02-22T11:25:18.420Z,40.42
2019-02-22T11:26:19.009Z,40.53
2019-02-22T11:27:19.353Z,40.38
2019-02-22T11:28:18.673Z,40.68
2019-02-22T11:29:20.494Z,41.19
2019-02-22T11:30:19.571Z,41.08
2019-02-22T11:31:18.776Z,41.17
2019-02-22T11:32:19.752Z,41.05
2019-02-22T11:33:19.417Z,41.18
2019-02-22T11:34:18.827Z,41.44
2019-02-22T11:35:18.656Z,41.07
2019-02-22T11:36:19.142Z,41.1
2019-02-22T11:37:18.725Z,41.07
2019-02-22T11:38:18.852Z,40.91
2019-02-22T11:39:18.581Z,40.76
2019-02-22T11:40:19.054Z,41.04
2019-02-22T11:41:18.673Z,41.29
2019-02-22T11:42:20.402Z,40.86
2019-02-22T11:43:18.658Z,41.32
2019-02-22T11:44:18.730Z,40.94
2019-02-22T11:45:18.719Z,41.27
2019-02-22T11:46:18.988Z,41.56
2019-02-22T11:47:18.690Z,41.33
2019-02-22T11:48:18.806Z,41.14
2019-02-22T11:49:18.499Z,41.07
2019-02-22T11:50:18.350Z,41.2
2019-02-22T11:51:18.874Z,41.43
2019-02-22T11:52:18.725Z,41.25
2019-02-22T11:53:18.564Z,41.42
2019-02-22T11:54:18.867Z,41.17
2019-02-22T11:55:20.562Z,41.11
2019-02-22T11:56:18.832Z,40.9
2019-02-22T11:57:20.532Z,40.94
2019-02-22T11:58:19.066Z,40.8
2019-02-22T11:59:18.668Z,41.05
2019-02-22T12:00:18.635Z,41.41
2019-02-22T12:01:19.011Z,41.27
2019-02-22T12:02:18.814Z,41.01
2019-02-22T12:03:25.195Z,40.78
2019-02-22T12:04:19.183Z,41.16
2019-02-22T12:05:18.390Z,40.61
2019-02-22T12:06:18.839Z,40.62
2019-02-22T12:07:19.047Z,40.77
2019-02-22T12:08:18.859Z,40.56
2019-02-22T12:09:18.760Z,40.73
2019-02-22T12:10:18.799Z,40.39
2019-02-22T12:11:19.115Z,40.52
2019-02-22T12:12:18.865Z,40.41
2019-02-22T12:13:19.106Z,40.43
2019-02-22T12:14:18.621Z,40.49
2019-02-22T12:15:19.004Z,40.7
2019-02-22T12:16:19.021Z,40.83
2019-02-22T12:17:19.525Z,40.39
2019-02-22T12:18:19.033Z,40.47
2019-02-22T12:19:20.428Z,40.41
2019-02-22T12:20:18.542Z,40.33
2019-02-22T12:21:18.840Z,40.32
2019-02-22T12:22:18.739Z,40.43
2019-02-22T12:23:18.845Z,40.26
2019-02-22T12:24:18.961Z,40.27
2019-02-22T12:25:19.995Z,40.23
2019-02-22T12:26:19.634Z,40.31
2019-02-22T12:27:19.402Z,40.29
2019-02-22T12:28:18.481Z,40.27
2019-02-22T12:29:18.506Z,40.32
2019-02-22T12:30:18.646Z,40.28
2019-02-22T12:31:19.032Z,40.26
2019-02-22T12:32:18.720Z,40.35
2019-02-22T12:33:18.818Z,40.46
2019-02-22T12:34:19.618Z,40.42
2019-02-22T12:35:18.630Z,40.51
2019-02-22T12:36:18.647Z,40.44
2019-02-22T12:37:19.789Z,40.5
2019-02-22T12:38:18.632Z,40.46
2019-02-22T12:39:19.360Z,40.5
2019-02-22T12:40:18.967Z,40.48
2019-02-22T12:41:18.638Z,40.45
2019-02-22T12:42:18.708Z,40.47
2019-02-22T12:43:18.799Z,40.45
2019-02-22T12:44:18.840Z,40.38
2019-02-22T12:45:18.653Z,40.39
2019-02-22T12:46:18.702Z,40.44
2019-02-22T12:47:18.995Z,40.39
2019-02-22T12:48:19.271Z,40.43
2019-02-22T12:49:18.718Z,40.38
2019-02-22T12:50:18.599Z,40.43
2019-02-22T12:51:18.996Z,40.32
2019-02-22T12:52:18.666Z,40.37
2019-02-22T12:53:18.534Z,40.3
2019-02-22T12:54:18.830Z,40.36
2019-02-22T12:55:18.506Z,40.28
2019-02-22T12:56:44.515Z,40.37